Change the Weather History Date:

Saturday, April 6, 2013

  Actual Average (KLOZ) Record (KLOZ)
Temperature  
Mean Temperature 50 °F 54 °F  
Max Temperature 69 °F 66 °F 88 °F (2010)
Min Temperature 32 °F 42 °F 26 °F (2007)
Degree Days  
Heating Degree Days 14 12  
Month to date heating degree days 75  
Since 1 July heating degree days 3900  
Cooling Degree Days 0 0  
Month to date cooling degree days 0  
Year to date cooling degree days 3  
Moisture  
Dew Point 34 °F    
Average Humidity 59    
Maximum Humidity 99    
Minimum Humidity 22    
Precipitation  
Precipitation 0.00 in 0.12 in 2.10 in (1962)
Month to date precipitation 0.76  
Year to date precipitation 12.06  
Sea Level Pressure  
Sea Level Pressure 30.12 in    
Wind  
Wind Speed 2 mph (South)    
Max Wind Speed 10 mph    
Max Gust Speed 17 mph    
Visibility 9 miles    
Events      
T = Trace of Precipitation, MM = Missing Value Source: NWS Daily Summary

Daily Weather History Graph

Daily Weather History Graph

Search for Another Location

Airport or City:

Trip Planner

Search our weather history database for the weather conditions in past years. The results will help you decide how hot, cold, wet, or windy it might be!

Date:

Astronomy

Apr. 06, 2013 Rise Set
Actual Time 6:13 AM CDT 7:01 PM CDT
Civil Twilight 5:47 AM CDT 7:27 PM CDT
Nautical Twilight 5:16 AM CDT 7:59 PM CDT
Astronomical Twilight 4:44 AM CDT 8:31 PM CDT
Moon 3:50 AM CDT (4/6) 3:34 PM CDT (4/6)
Length of Visible Light 13h 40m
Length of Day
12h 48m
Waning Crescent, 15% of the Moon is Illuminated
Apr 6
Waning Crescent
Apr 10
New
Apr 18
First Quarter
Apr 25
Full
May 2
Last Quarter

Hourly Weather History & Observations

Time (CDT) Temp. Dew Point Humidity Pressure Visibility Wind Dir Wind Speed Gust Speed Precip Events Conditions
12:15 AM 38.5 °F 35.1 °F 87% 30.12 in 7.0 mi Calm Calm - N/A   Clear
12:35 AM 38.3 °F 34.9 °F 87% 30.12 in 7.0 mi Calm Calm - N/A   Clear
12:55 AM 37.6 °F 34.3 °F 88% 30.12 in 7.0 mi Calm Calm - N/A   Clear
1:15 AM 36.7 °F 34.3 °F 91% 30.13 in 7.0 mi Calm Calm - N/A   Clear
1:35 AM 37.0 °F 34.0 °F 89% 30.13 in 7.0 mi Calm Calm - N/A   Clear
1:55 AM 36.0 °F 34.0 °F 93% 30.13 in 7.0 mi Calm Calm - N/A   Clear
2:15 AM 35.8 °F 33.8 °F 92% 30.13 in 7.0 mi Calm Calm - N/A   Clear
2:35 AM 35.6 °F 33.4 °F 92% 30.12 in 7.0 mi Calm Calm - N/A   Clear
2:55 AM 34.9 °F 33.3 °F 94% 30.12 in 7.0 mi Calm Calm - N/A   Clear
3:15 AM 34.7 °F 33.1 °F 94% 30.13 in 7.0 mi Calm Calm - N/A   Clear
3:35 AM 33.8 °F 32.2 °F 94% 30.13 in 7.0 mi Calm Calm - N/A   Clear
3:55 AM 33.8 °F 32.7 °F 96% 30.14 in 7.0 mi Calm Calm - N/A   Clear
4:15 AM 33.8 °F 32.4 °F 94% 30.14 in 7.0 mi Calm Calm - N/A   Clear
4:35 AM 33.4 °F 32.2 °F 95% 30.14 in 7.0 mi Calm Calm - N/A   Clear
4:55 AM 32.7 °F 32.0 °F 97% 30.15 in 7.0 mi Calm Calm - N/A   Clear
5:15 AM 32.7 °F 31.8 °F 96% 30.16 in 7.0 mi Calm Calm - N/A   Clear
5:35 AM 32.2 °F 31.8 °F 99% 30.17 in 5.0 mi Calm Calm - N/A   Clear
5:55 AM 32.0 °F 31.1 °F 96% 30.17 in 7.0 mi Calm Calm - N/A   Clear
6:15 AM 32.0 °F 31.8 °F 99% 30.18 in 4.0 mi Calm Calm - N/A   Clear
6:35 AM 32.0 °F 31.1 °F 96% 30.20 in 5.0 mi Calm Calm - N/A   Clear
6:55 AM 32.0 °F 31.8 °F 99% 30.20 in 5.0 mi Calm Calm - N/A   Clear
7:15 AM 33.4 °F 32.0 °F 94% 30.21 in 7.0 mi Calm Calm - N/A   Clear
7:35 AM 34.9 °F 33.1 °F 93% 30.21 in 7.0 mi Calm Calm - N/A   Clear
7:55 AM 36.5 °F 34.2 °F 91% 30.21 in 10.0 mi Calm Calm - N/A   Clear
8:15 AM 38.7 °F 34.7 °F 86% 30.21 in 10.0 mi Calm Calm - N/A   Clear
8:35 AM 41.5 °F 36.0 °F 81% 30.21 in 10.0 mi Calm Calm - N/A   Clear
8:55 AM 43.5 °F 35.8 °F 74% 30.21 in 10.0 mi Calm Calm - N/A   Clear
9:15 AM 46.0 °F 35.8 °F 67% 30.21 in 10.0 mi Calm Calm - N/A   Clear
9:35 AM 48.9 °F 36.5 °F 62% 30.20 in 10.0 mi Calm Calm - N/A   Clear
9:55 AM 53.1 °F 37.2 °F 55% 30.20 in 10.0 mi Calm Calm - N/A   Clear
10:15 AM 56.7 °F 36.3 °F 47% 30.20 in 10.0 mi Calm Calm - N/A   Clear
10:35 AM 59.5 °F 34.3 °F 39% 30.19 in 10.0 mi Calm Calm - N/A   Clear
10:55 AM 61.5 °F 32.4 °F 33% 30.18 in 10.0 mi SSW 6.9 mph - N/A   Clear
11:15 AM 63.5 °F 33.8 °F 33% 30.18 in 10.0 mi SSE 5.8 mph - N/A   Clear
11:35 AM 63.0 °F 32.9 °F 32% 30.17 in 10.0 mi SSE 4.6 mph - N/A   Clear
11:55 AM 64.6 °F 33.3 °F 31% 30.17 in 10.0 mi WSW 5.8 mph - N/A   Clear
12:15 PM 65.1 °F 32.7 °F 30% 30.16 in 10.0 mi South 5.8 mph - N/A   Clear
12:35 PM 66.6 °F 32.0 °F 28% 30.14 in 10.0 mi SW 8.1 mph - N/A   Clear
12:55 PM 66.2 °F 29.8 °F 26% 30.14 in 10.0 mi SSW 8.1 mph - N/A   Clear
1:15 PM 66.7 °F 29.8 °F 25% 30.13 in 10.0 mi SSW 8.1 mph - N/A   Clear
1:35 PM 68.2 °F 31.8 °F 26% 30.12 in 10.0 mi South 6.9 mph - N/A   Clear
1:55 PM 68.5 °F 32.2 °F 26% 30.11 in 10.0 mi SW 3.5 mph - N/A   Clear
2:15 PM 69.3 °F 32.0 °F 25% 30.10 in 10.0 mi South 8.1 mph - N/A   Clear
2:35 PM 68.7 °F 30.6 °F 24% 30.09 in 10.0 mi SW 5.8 mph - N/A   Clear
2:55 PM 68.4 °F 28.9 °F 23% 30.09 in 10.0 mi South 3.5 mph - N/A   Clear
3:15 PM 68.5 °F 28.8 °F 23% 30.08 in 10.0 mi SSW 8.1 mph - N/A   Clear
3:35 PM 68.4 °F 28.8 °F 23% 30.07 in 10.0 mi South 10.4 mph 17.3 mph N/A   Clear
3:55 PM 69.1 °F 28.4 °F 22% 30.07 in 10.0 mi SSW 5.8 mph - N/A   Clear
4:15 PM 68.4 °F 29.7 °F 24% 30.07 in 10.0 mi South 5.8 mph - N/A   Clear
4:35 PM 68.5 °F 31.8 °F 26% 30.07 in 10.0 mi South 8.1 mph - N/A   Clear
4:55 PM 68.4 °F 33.8 °F 28% 30.07 in 10.0 mi South 10.4 mph 16.1 mph N/A   Clear
5:15 PM 68.0 °F 34.9 °F 29% 30.07 in 10.0 mi South 9.2 mph - N/A   Clear
5:35 PM 68.0 °F 35.8 °F 31% 30.06 in 10.0 mi SSW 5.8 mph - N/A   Clear
5:55 PM 67.1 °F 36.0 °F 32% 30.06 in 10.0 mi South 4.6 mph - N/A   Clear
6:15 PM 66.7 °F 35.1 °F 31% 30.07 in 10.0 mi SSW 4.6 mph - N/A   Clear
6:35 PM 66.0 °F 35.8 °F 33% 30.07 in 10.0 mi South 3.5 mph - N/A   Clear
6:55 PM 65.1 °F 36.7 °F 35% 30.06 in 10.0 mi South 3.5 mph - N/A   Clear
7:15 PM 63.5 °F 36.7 °F 37% 30.06 in 10.0 mi South 3.5 mph - N/A   Clear
7:35 PM 61.0 °F 39.2 °F 45% 30.06 in 10.0 mi Calm Calm - N/A   Clear
7:55 PM 57.6 °F 42.8 °F 58% 30.05 in 10.0 mi Calm Calm - N/A   Clear
8:15 PM 56.1 °F 41.9 °F 59% 30.05 in 10.0 mi Calm Calm - N/A   Clear
8:35 PM 54.9 °F 42.3 °F 63% 30.06 in 10.0 mi Calm Calm - N/A   Clear
8:55 PM 54.5 °F 42.4 °F 64% 30.06 in 10.0 mi Calm Calm - N/A   Clear
9:15 PM 52.3 °F 43.2 °F 71% 30.08 in 10.0 mi Calm Calm - N/A   Clear
9:35 PM 55.2 °F 41.4 °F 60% 30.07 in 10.0 mi South 3.5 mph - N/A   Clear
9:55 PM 51.1 °F 41.7 °F 70% 30.07 in 10.0 mi Calm Calm - N/A   Clear
10:15 PM 57.0 °F 39.4 °F 52% 30.07 in 10.0 mi South 3.5 mph - N/A   Clear
10:35 PM 56.1 °F 38.8 °F 52% 30.08 in 10.0 mi South 4.6 mph - N/A   Clear
10:55 PM 59.2 °F 36.7 °F 43% 30.08 in 10.0 mi South 4.6 mph - N/A   Clear
11:15 PM 59.0 °F 36.5 °F 43% 30.08 in 10.0 mi South 4.6 mph - N/A   Clear
11:35 PM 58.8 °F 36.5 °F 43% 30.09 in 10.0 mi South 3.5 mph - N/A   Clear
11:55 PM 58.1 °F 36.3 °F 44% 30.09 in 10.0 mi SSE 4.6 mph - N/A   Clear